createdAt,value
2017-03-02T00:00:09.050Z,0
2017-03-02T00:01:19.240Z,0
2017-03-02T00:02:28.618Z,0
2017-03-02T00:03:38.367Z,0
2017-03-02T00:04:48.112Z,0
2017-03-02T00:05:58.315Z,0
2017-03-02T00:07:09.394Z,0
2017-03-02T00:08:19.205Z,0
2017-03-02T00:09:29.010Z,0
2017-03-02T00:10:39.633Z,0
2017-03-02T00:11:49.405Z,0
2017-03-02T00:13:00.031Z,0
2017-03-02T00:14:09.888Z,0
2017-03-02T00:15:20.998Z,0
2017-03-02T00:16:30.747Z,0
2017-03-02T00:17:40.080Z,0
2017-03-02T00:18:50.273Z,0
2017-03-02T00:20:00.946Z,0
2017-03-02T00:21:10.692Z,0
2017-03-02T00:22:20.436Z,0
2017-03-02T00:23:30.206Z,0
2017-03-02T00:24:40.843Z,0
2017-03-02T00:25:51.516Z,0
2017-03-02T00:27:01.282Z,0
2017-03-02T00:28:11.041Z,0
2017-03-02T00:29:21.223Z,0
2017-03-02T00:30:31.415Z,0
2017-03-02T00:31:41.664Z,0
2017-03-02T00:32:51.431Z,0
2017-03-02T00:34:01.182Z,0
2017-03-02T00:35:11.373Z,0
2017-03-02T00:36:22.434Z,0
2017-03-02T00:37:32.675Z,0
2017-03-02T00:38:42.419Z,0
2017-03-02T00:39:52.604Z,0
2017-03-02T00:41:02.361Z,0
2017-03-02T00:42:12.556Z,0
2017-03-02T00:43:22.800Z,0
2017-03-02T00:44:32.994Z,0
2017-03-02T00:45:42.782Z,0
2017-03-02T00:46:52.539Z,0
2017-03-02T00:48:02.708Z,0
2017-03-02T00:50:27.262Z,0
2017-03-02T00:51:38.247Z,0
2017-03-02T00:52:49.221Z,0
2017-03-02T00:53:59.759Z,0
2017-03-02T00:55:10.459Z,0
2017-03-02T00:56:20.668Z,0
2017-03-02T00:57:30.906Z,0
2017-03-02T00:58:41.106Z,0
2017-03-02T00:59:51.304Z,0
2017-03-02T01:01:02.186Z,0
2017-03-02T01:02:11.495Z,0
2017-03-02T01:03:22.115Z,0
2017-03-02T01:04:32.742Z,0
2017-03-02T01:05:42.551Z,0
2017-03-02T01:06:53.232Z,0
2017-03-02T01:08:03.448Z,0
2017-03-02T01:09:13.223Z,0
2017-03-02T01:10:23.436Z,0
2017-03-02T01:11:34.081Z,0
2017-03-02T01:12:43.441Z,0
2017-03-02T01:13:53.630Z,0
2017-03-02T01:15:02.957Z,0
2017-03-02T01:16:12.293Z,0
2017-03-02T01:17:22.914Z,0
2017-03-02T01:18:33.167Z,0
2017-03-02T01:19:43.394Z,0
2017-03-02T01:20:53.601Z,0
2017-03-02T01:22:03.347Z,0
2017-03-02T01:23:13.100Z,0
2017-03-02T01:24:23.353Z,0
2017-03-02T01:25:34.420Z,0
2017-03-02T01:26:44.619Z,0
2017-03-02T01:27:54.797Z,0
2017-03-02T01:29:05.427Z,0
2017-03-02T01:30:15.435Z,0
2017-03-02T01:31:25.192Z,0
2017-03-02T01:32:35.819Z,0
2017-03-02T01:33:45.596Z,0
2017-03-02T01:34:55.780Z,0
2017-03-02T01:36:06.454Z,0
2017-03-02T01:37:16.672Z,0
2017-03-02T01:38:26.433Z,0
2017-03-02T01:39:36.199Z,0
2017-03-02T01:40:46.383Z,0
2017-03-02T01:41:57.068Z,0
2017-03-02T01:43:06.818Z,0
2017-03-02T01:44:17.447Z,0
2017-03-02T01:45:27.659Z,0
2017-03-02T01:46:37.857Z,0
2017-03-02T01:47:47.673Z,0
2017-03-02T01:48:57.416Z,0
2017-03-02T01:50:08.061Z,0
2017-03-02T01:51:17.822Z,0
2017-03-02T01:52:28.891Z,0
2017-03-02T01:53:40.164Z,0
2017-03-02T01:54:51.244Z,0
2017-03-02T01:56:00.987Z,0
2017-03-02T01:57:11.623Z,0
2017-03-02T01:58:22.233Z,0
2017-03-02T01:59:32.155Z,0
2017-03-02T02:00:41.915Z,0
2017-03-02T02:01:51.688Z,0
2017-03-02T02:03:01.889Z,0
2017-03-02T02:04:12.520Z,0
2017-03-02T02:05:21.931Z,0
2017-03-02T02:06:31.697Z,0
2017-03-02T02:07:43.195Z,0
2017-03-02T02:08:52.956Z,0
2017-03-02T02:10:02.285Z,0
2017-03-02T02:11:12.529Z,0
2017-03-02T02:12:23.608Z,0
2017-03-02T02:13:33.794Z,0
2017-03-02T02:14:43.105Z,0
2017-03-02T02:15:52.847Z,0
2017-03-02T02:17:03.532Z,0
2017-03-02T02:18:13.286Z,0
2017-03-02T02:19:23.934Z,0
2017-03-02T02:20:34.155Z,0
2017-03-02T02:21:43.485Z,0
2017-03-02T02:22:54.174Z,0
2017-03-02T02:24:03.963Z,0
2017-03-02T02:25:13.286Z,0
2017-03-02T02:26:23.504Z,0
2017-03-02T02:27:32.832Z,0
2017-03-02T02:28:42.414Z,0
2017-03-02T02:29:52.601Z,0
2017-03-02T02:31:02.800Z,0
2017-03-02T02:32:12.113Z,0
2017-03-02T02:33:21.436Z,0
2017-03-02T02:34:31.264Z,0
2017-03-02T02:35:41.489Z,0
2017-03-02T02:36:52.125Z,0
2017-03-02T02:38:01.874Z,0
2017-03-02T02:39:12.067Z,0
2017-03-02T02:40:21.876Z,0
2017-03-02T02:41:32.077Z,0
2017-03-02T02:42:43.156Z,0
2017-03-02T02:43:52.928Z,0
2017-03-02T02:45:02.681Z,0
2017-03-02T02:46:12.060Z,0
2017-03-02T02:47:22.697Z,0
2017-03-02T02:48:32.017Z,0
2017-03-02T02:49:41.771Z,0
2017-03-02T02:50:51.968Z,0
2017-03-02T02:52:01.813Z,0
2017-03-02T02:53:11.620Z,0
2017-03-02T02:54:20.949Z,0
2017-03-02T02:55:30.702Z,0
2017-03-02T02:56:40.891Z,0
2017-03-02T02:57:50.696Z,0
2017-03-02T02:59:00.477Z,0
2017-03-02T03:00:10.258Z,0
2017-03-02T03:01:20.010Z,0
2017-03-02T03:02:29.323Z,0
2017-03-02T03:03:39.586Z,0
2017-03-02T03:04:49.820Z,0
2017-03-02T03:05:59.144Z,0
2017-03-02T03:07:08.470Z,0
2017-03-02T03:08:18.229Z,0
2017-03-02T03:09:28.912Z,0
2017-03-02T03:10:38.228Z,0
2017-03-02T03:11:47.587Z,0
2017-03-02T03:12:57.816Z,0
2017-03-02T03:14:07.147Z,0
2017-03-02T03:15:17.406Z,0
2017-03-02T03:16:27.602Z,0
2017-03-02T03:17:37.359Z,0
2017-03-02T03:18:47.542Z,0
2017-03-02T03:19:56.853Z,0
2017-03-02T03:21:06.692Z,0
2017-03-02T03:22:16.444Z,0
2017-03-02T03:23:26.629Z,0
2017-03-02T03:24:36.416Z,0
2017-03-02T03:25:46.157Z,0
2017-03-02T03:26:56.500Z,0
2017-03-02T03:28:06.702Z,0
2017-03-02T03:29:16.457Z,0
2017-03-02T03:30:25.777Z,0
2017-03-02T03:31:35.587Z,0
2017-03-02T03:32:45.408Z,0
2017-03-02T03:33:55.161Z,0
2017-03-02T03:35:04.927Z,0
2017-03-02T03:36:14.275Z,0
2017-03-02T03:37:23.597Z,0
2017-03-02T03:38:33.458Z,0
2017-03-02T03:39:43.215Z,0
2017-03-02T03:40:52.993Z,0
2017-03-02T03:42:02.314Z,0
2017-03-02T03:43:12.056Z,0
2017-03-02T03:44:21.888Z,0
2017-03-02T03:45:31.210Z,0
2017-03-02T03:46:41.419Z,0
2017-03-02T03:47:51.183Z,0
2017-03-02T03:49:00.941Z,0
2017-03-02T03:50:10.764Z,0
2017-03-02T03:51:20.982Z,0
2017-03-02T03:52:31.644Z,0
2017-03-02T03:53:40.952Z,0
2017-03-02T03:54:51.183Z,0
2017-03-02T03:56:00.556Z,0
2017-03-02T03:57:10.325Z,0
2017-03-02T03:58:20.086Z,0
2017-03-02T03:59:29.848Z,0
2017-03-02T04:00:39.627Z,0
2017-03-02T04:01:49.874Z,0
2017-03-02T04:03:00.083Z,0
2017-03-02T04:04:10.272Z,0
2017-03-02T04:05:20.461Z,0
2017-03-02T04:06:29.785Z,0
2017-03-02T04:07:40.491Z,0
2017-03-02T04:08:50.272Z,0
2017-03-02T04:10:00.030Z,0
2017-03-02T04:11:09.837Z,0
2017-03-02T04:12:20.459Z,0
2017-03-02T04:13:30.285Z,0
2017-03-02T04:14:39.602Z,0
2017-03-02T04:15:49.794Z,0
2017-03-02T04:16:59.544Z,0
2017-03-02T04:18:08.865Z,0
2017-03-02T04:19:18.267Z,0
2017-03-02T04:20:28.023Z,0
2017-03-02T04:21:38.669Z,0
2017-03-02T04:22:48.434Z,0
2017-03-02T04:23:58.635Z,0
2017-03-02T04:25:08.875Z,0
2017-03-02T04:26:19.118Z,0
2017-03-02T04:27:28.865Z,0
2017-03-02T04:28:38.630Z,0
2017-03-02T04:29:48.825Z,0
2017-03-02T04:30:58.178Z,0
2017-03-02T04:32:07.503Z,0
2017-03-02T04:33:17.296Z,0
2017-03-02T04:34:27.069Z,0
2017-03-02T04:35:37.255Z,0
2017-03-02T04:36:47.088Z,0
2017-03-02T04:37:56.845Z,0
2017-03-02T04:39:06.166Z,0
2017-03-02T04:40:15.926Z,0
2017-03-02T04:41:26.145Z,0
2017-03-02T04:42:36.382Z,0
2017-03-02T04:43:46.145Z,0
2017-03-02T04:44:55.900Z,0
2017-03-02T04:46:06.536Z,0
2017-03-02T04:47:15.862Z,0
2017-03-02T04:48:26.139Z,0
2017-03-02T04:49:35.888Z,0
2017-03-02T04:50:45.630Z,0
2017-03-02T04:51:55.878Z,0
2017-03-02T04:53:05.615Z,0
2017-03-02T04:54:15.882Z,0
2017-03-02T04:55:25.227Z,0
2017-03-02T04:56:34.987Z,0
2017-03-02T04:57:44.741Z,0
2017-03-02T04:58:54.079Z,0
2017-03-02T05:00:03.891Z,0
2017-03-02T05:01:14.088Z,0
2017-03-02T05:02:24.301Z,0
2017-03-02T05:03:34.485Z,0
2017-03-02T05:04:44.695Z,0
2017-03-02T05:05:55.349Z,0
2017-03-02T05:07:04.666Z,0
2017-03-02T05:08:14.440Z,0
2017-03-02T05:09:24.217Z,0
2017-03-02T05:10:33.968Z,0
2017-03-02T05:11:44.369Z,0
2017-03-02T05:12:54.583Z,0
2017-03-02T05:14:04.772Z,0
2017-03-02T05:15:14.571Z,0
2017-03-02T05:16:24.312Z,0
2017-03-02T05:17:34.151Z,0
2017-03-02T05:18:44.342Z,0
2017-03-02T05:19:54.131Z,0
2017-03-02T05:21:03.873Z,0
2017-03-02T05:22:13.634Z,0
2017-03-02T05:23:23.451Z,0
2017-03-02T05:24:32.768Z,0
2017-03-02T05:25:42.085Z,0
2017-03-02T05:26:52.277Z,0
2017-03-02T05:28:02.028Z,0
2017-03-02T05:29:12.376Z,0
2017-03-02T05:30:21.734Z,0
2017-03-02T05:31:31.480Z,0
2017-03-02T05:32:41.228Z,0
2017-03-02T05:33:51.001Z,0
2017-03-02T05:35:01.251Z,0
2017-03-02T05:36:10.576Z,0
2017-03-02T05:37:21.210Z,0
2017-03-02T05:38:31.421Z,0
2017-03-02T05:39:40.750Z,0
2017-03-02T05:40:50.591Z,0
2017-03-02T05:42:00.362Z,0
2017-03-02T05:43:09.687Z,0
2017-03-02T05:44:19.453Z,0
2017-03-02T05:45:28.774Z,0
2017-03-02T05:46:38.167Z,0
2017-03-02T05:47:47.935Z,0
2017-03-02T05:48:59.004Z,0
2017-03-02T05:50:08.786Z,0
2017-03-02T05:51:18.112Z,0
2017-03-02T05:52:27.907Z,0
2017-03-02T05:53:38.113Z,0
2017-03-02T05:54:47.855Z,0
2017-03-02T05:55:57.176Z,0
2017-03-02T05:57:06.961Z,0
2017-03-02T05:58:16.355Z,0
2017-03-02T05:59:26.115Z,0
2017-03-02T06:00:35.881Z,0
2017-03-02T06:01:45.657Z,0
2017-03-02T06:02:55.851Z,0
2017-03-02T06:04:05.656Z,0
2017-03-02T06:05:14.974Z,0
2017-03-02T06:06:24.331Z,0
2017-03-02T06:07:34.109Z,0
2017-03-02T06:08:43.902Z,0
2017-03-02T06:09:53.747Z,0
2017-03-02T06:11:03.506Z,0
2017-03-02T06:12:13.697Z,0
2017-03-02T06:13:23.042Z,0
2017-03-02T06:14:32.363Z,0
2017-03-02T06:15:42.641Z,0
2017-03-02T06:16:52.412Z,0
2017-03-02T06:18:02.182Z,0
2017-03-02T06:19:11.954Z,0
2017-03-02T06:20:21.268Z,0
2017-03-02T06:21:31.943Z,0
2017-03-02T06:22:41.700Z,0
2017-03-02T06:23:52.345Z,5
2017-03-02T06:25:02.104Z,5
2017-03-02T06:26:12.391Z,5
2017-03-02T06:27:22.204Z,5
2017-03-02T06:28:31.536Z,5
2017-03-02T06:29:41.285Z,5
2017-03-02T06:30:51.904Z,5
2017-03-02T06:32:01.661Z,5
2017-03-02T06:33:11.026Z,5
2017-03-02T06:34:21.242Z,5
2017-03-02T06:35:31.013Z,5
2017-03-02T06:36:40.798Z,5
2017-03-02T06:37:50.543Z,10
2017-03-02T06:38:59.923Z,10
2017-03-02T06:40:10.148Z,10
2017-03-02T06:41:19.937Z,10
2017-03-02T06:42:30.162Z,10
2017-03-02T06:43:40.348Z,10
2017-03-02T06:44:50.606Z,10
2017-03-02T06:46:01.499Z,10
2017-03-02T06:47:10.825Z,10
2017-03-02T06:48:20.585Z,10
2017-03-02T06:49:30.350Z,10
2017-03-02T06:50:40.603Z,10
2017-03-02T06:51:50.373Z,10
2017-03-02T06:53:00.150Z,10
2017-03-02T06:54:09.899Z,10
2017-03-02T06:55:19.645Z,10
2017-03-02T06:56:29.497Z,15
2017-03-02T06:57:39.262Z,15
2017-03-02T06:58:48.600Z,15
2017-03-02T06:59:58.744Z,15
2017-03-02T07:01:09.326Z,15
2017-03-02T07:02:19.823Z,15
2017-03-02T07:03:30.425Z,15
2017-03-02T07:04:40.272Z,20
2017-03-02T07:05:51.039Z,20
2017-03-02T07:07:01.240Z,20
2017-03-02T07:08:11.507Z,10
2017-03-02T07:09:21.713Z,20
2017-03-02T07:10:31.027Z,20
2017-03-02T07:11:41.213Z,25
2017-03-02T07:12:51.699Z,25
2017-03-02T07:14:02.509Z,30
2017-03-02T07:15:14.297Z,40
2017-03-02T07:16:24.356Z,35
2017-03-02T07:17:35.082Z,45
2017-03-02T07:18:45.252Z,45
2017-03-02T07:19:57.871Z,40
2017-03-02T07:21:09.597Z,25
2017-03-02T07:22:19.567Z,20
2017-03-02T07:23:31.036Z,20
2017-03-02T07:24:41.918Z,20
2017-03-02T07:25:52.077Z,25
2017-03-02T07:27:01.404Z,30
2017-03-02T07:28:11.293Z,40
2017-03-02T07:29:21.213Z,40
2017-03-02T07:30:31.432Z,40
2017-03-02T07:31:40.835Z,40
2017-03-02T07:32:50.265Z,45
2017-03-02T07:34:00.142Z,40
2017-03-02T07:35:09.456Z,35
2017-03-02T07:36:19.008Z,30
2017-03-02T07:37:28.686Z,30
2017-03-02T07:38:38.662Z,35
2017-03-02T07:39:48.283Z,40
2017-03-02T07:40:58.509Z,40
2017-03-02T07:42:08.859Z,45
2017-03-02T07:43:19.602Z,45
2017-03-02T07:44:30.155Z,50
2017-03-02T07:45:43.462Z,50
2017-03-02T07:46:54.862Z,45
2017-03-02T07:48:06.360Z,45
2017-03-02T07:49:15.764Z,40
2017-03-02T07:50:25.573Z,40
2017-03-02T07:51:37.975Z,40
2017-03-02T07:52:48.275Z,45
2017-03-02T07:53:59.258Z,60
2017-03-02T07:55:09.846Z,65
2017-03-02T07:56:19.368Z,60
2017-03-02T07:57:29.247Z,60
2017-03-02T07:58:39.213Z,55
2017-03-02T07:59:51.602Z,50
2017-03-02T08:01:03.890Z,65
2017-03-02T08:02:17.426Z,55
2017-03-02T08:03:30.276Z,65
2017-03-02T08:04:44.375Z,45
2017-03-02T08:05:56.704Z,50
2017-03-02T08:07:10.029Z,55
2017-03-02T08:08:20.067Z,50
2017-03-02T08:09:30.321Z,60
2017-03-02T08:10:39.631Z,65
2017-03-02T08:11:49.430Z,75
2017-03-02T08:12:59.191Z,70
2017-03-02T08:14:08.971Z,70
2017-03-02T08:15:19.198Z,70
2017-03-02T08:16:28.965Z,75
2017-03-02T08:17:38.778Z,75
2017-03-02T08:18:48.557Z,85
2017-03-02T08:19:59.180Z,80
2017-03-02T08:21:09.037Z,85
2017-03-02T08:22:19.109Z,85
2017-03-02T08:23:30.100Z,80
2017-03-02T08:24:40.169Z,80
2017-03-02T08:25:51.922Z,60
2017-03-02T08:27:01.374Z,60
2017-03-02T08:28:11.274Z,70
2017-03-02T08:29:21.538Z,70
2017-03-02T08:30:31.727Z,65
2017-03-02T08:31:41.064Z,70
2017-03-02T08:32:51.264Z,70
2017-03-02T08:34:01.455Z,70
2017-03-02T08:35:10.848Z,65
2017-03-02T08:36:20.620Z,60
2017-03-02T08:37:30.728Z,60
2017-03-02T08:38:40.455Z,65
2017-03-02T08:39:49.792Z,65
2017-03-02T08:40:59.346Z,80
2017-03-02T08:42:08.677Z,75
2017-03-02T08:43:19.098Z,110
2017-03-02T08:44:29.163Z,85
2017-03-02T08:45:41.405Z,85
2017-03-02T08:46:51.534Z,80
2017-03-02T08:48:02.165Z,85
2017-03-02T08:49:12.361Z,70
2017-03-02T08:50:22.435Z,60
2017-03-02T08:51:32.183Z,75
2017-03-02T08:52:41.789Z,75
2017-03-02T08:53:51.119Z,95
2017-03-02T08:55:00.872Z,95
2017-03-02T08:56:10.633Z,70
2017-03-02T08:57:20.830Z,70
2017-03-02T08:58:30.219Z,80
2017-03-02T08:59:39.899Z,85
2017-03-02T09:00:50.198Z,70
2017-03-02T09:01:59.955Z,80
2017-03-02T09:03:10.339Z,90
2017-03-02T09:04:20.781Z,115
2017-03-02T09:05:30.662Z,110
2017-03-02T09:06:40.959Z,100
2017-03-02T09:07:51.148Z,100
2017-03-02T09:09:00.490Z,95
2017-03-02T09:10:10.307Z,90
2017-03-02T09:11:20.268Z,85
2017-03-02T09:12:30.014Z,85
2017-03-02T09:13:40.077Z,90
2017-03-02T09:14:50.815Z,95
2017-03-02T09:16:01.060Z,95
2017-03-02T09:17:12.219Z,90
2017-03-02T09:18:21.976Z,85
2017-03-02T09:19:31.803Z,85
2017-03-02T09:20:41.778Z,90
2017-03-02T09:21:51.581Z,90
2017-03-02T09:23:02.260Z,80
2017-03-02T09:24:12.898Z,85
2017-03-02T09:25:22.683Z,85
2017-03-02T09:26:32.860Z,100
2017-03-02T09:27:42.673Z,105
2017-03-02T09:28:52.698Z,125
2017-03-02T09:30:02.871Z,115
2017-03-02T09:31:12.644Z,110
2017-03-02T09:32:22.062Z,110
2017-03-02T09:33:32.359Z,105
2017-03-02T09:34:42.989Z,115
2017-03-02T09:35:52.986Z,120
2017-03-02T09:37:02.755Z,120
2017-03-02T09:38:12.084Z,120
2017-03-02T09:39:21.876Z,125
2017-03-02T09:40:32.069Z,125
2017-03-02T09:41:41.387Z,125
2017-03-02T09:42:51.573Z,120
2017-03-02T09:44:01.098Z,115
2017-03-02T09:45:10.539Z,100
2017-03-02T09:46:20.284Z,80
2017-03-02T09:47:30.242Z,55
2017-03-02T09:48:40.291Z,70
2017-03-02T09:49:50.516Z,55
2017-03-02T09:50:59.884Z,35
2017-03-02T09:52:10.364Z,45
2017-03-02T09:53:20.755Z,30
2017-03-02T09:54:30.955Z,45
2017-03-02T09:55:41.146Z,65
2017-03-02T09:56:50.519Z,75
2017-03-02T09:58:00.272Z,65
2017-03-02T09:59:10.016Z,80
2017-03-02T10:00:20.673Z,85
2017-03-02T10:01:30.867Z,90
2017-03-02T10:02:41.121Z,90
2017-03-02T10:03:50.430Z,85
2017-03-02T10:05:00.183Z,85
2017-03-02T10:06:09.520Z,85
2017-03-02T10:07:18.836Z,80
2017-03-02T10:08:28.651Z,90
2017-03-02T10:09:38.351Z,95
2017-03-02T10:10:48.308Z,100
2017-03-02T10:11:58.082Z,95
2017-03-02T10:13:07.847Z,105
2017-03-02T10:14:17.688Z,105
2017-03-02T10:15:27.021Z,105
2017-03-02T10:16:38.112Z,100
2017-03-02T10:17:48.735Z,105
2017-03-02T10:18:58.925Z,70
2017-03-02T10:20:09.071Z,130
2017-03-02T10:21:19.855Z,110
2017-03-02T10:22:29.858Z,90
2017-03-02T10:23:39.611Z,55
2017-03-02T10:24:50.123Z,75
2017-03-02T10:26:00.642Z,80
2017-03-02T10:27:10.390Z,80
2017-03-02T10:28:21.028Z,110
2017-03-02T10:29:31.231Z,85
2017-03-02T10:30:41.073Z,90
2017-03-02T10:31:50.954Z,105
2017-03-02T10:33:00.269Z,95
2017-03-02T10:34:09.712Z,115
2017-03-02T10:35:21.265Z,105
2017-03-02T10:36:30.599Z,100
2017-03-02T10:37:40.849Z,65
2017-03-02T10:38:50.171Z,95
2017-03-02T10:40:00.072Z,85
2017-03-02T10:41:09.828Z,50
2017-03-02T10:42:19.749Z,70
2017-03-02T10:43:29.567Z,55
2017-03-02T10:44:38.907Z,45
2017-03-02T10:45:48.409Z,60
2017-03-02T10:46:57.738Z,45
2017-03-02T10:48:07.195Z,80
2017-03-02T10:49:17.533Z,75
2017-03-02T10:50:27.283Z,75
2017-03-02T10:51:36.601Z,95
2017-03-02T10:52:47.231Z,100
2017-03-02T10:53:57.166Z,70
2017-03-02T10:55:06.536Z,80
2017-03-02T10:56:16.288Z,80
2017-03-02T10:57:27.230Z,110
2017-03-02T10:58:42.190Z,65
2017-03-02T11:00:02.944Z,65
2017-03-02T11:01:23.153Z,60
2017-03-02T11:02:40.963Z,75
2017-03-02T11:03:58.385Z,70
2017-03-02T11:05:15.384Z,85
2017-03-02T11:06:26.074Z,105
2017-03-02T11:07:36.264Z,115
2017-03-02T11:08:48.414Z,60
2017-03-02T11:09:58.266Z,65
2017-03-02T11:11:08.512Z,80
2017-03-02T11:12:17.825Z,85
2017-03-02T11:13:27.171Z,80
2017-03-02T11:14:36.954Z,70
2017-03-02T11:15:47.167Z,70
2017-03-02T11:16:57.852Z,70
2017-03-02T11:18:08.475Z,100
2017-03-02T11:19:18.229Z,120
2017-03-02T11:20:27.990Z,145
2017-03-02T11:21:37.739Z,115
2017-03-02T11:22:48.415Z,175
2017-03-02T11:23:57.753Z,140
2017-03-02T11:25:08.842Z,125
2017-03-02T11:26:18.604Z,115
2017-03-02T11:27:28.392Z,155
2017-03-02T11:28:38.450Z,105
2017-03-02T11:29:49.426Z,115
2017-03-02T11:31:01.151Z,125
2017-03-02T11:32:12.722Z,140
2017-03-02T11:33:23.357Z,115
2017-03-02T11:34:35.314Z,130
2017-03-02T11:35:46.272Z,120
2017-03-02T11:36:56.031Z,140
2017-03-02T11:38:06.226Z,175
2017-03-02T11:39:16.433Z,115
2017-03-02T11:40:26.237Z,145
2017-03-02T11:41:36.006Z,140
2017-03-02T11:42:45.759Z,165
2017-03-02T11:43:55.526Z,185
2017-03-02T11:45:05.722Z,155
2017-03-02T11:46:15.555Z,105
2017-03-02T11:47:25.950Z,130
2017-03-02T11:48:35.721Z,110
2017-03-02T11:49:45.476Z,95
2017-03-02T11:50:54.793Z,110
2017-03-02T11:52:04.746Z,140
2017-03-02T11:53:14.306Z,80
2017-03-02T11:54:23.823Z,115
2017-03-02T11:55:34.032Z,80
2017-03-02T11:56:44.207Z,110
2017-03-02T11:57:54.020Z,100
2017-03-02T11:59:03.553Z,90
2017-03-02T12:00:13.699Z,95
2017-03-02T12:01:23.232Z,80
2017-03-02T12:02:33.263Z,60
2017-03-02T12:03:44.701Z,70
2017-03-02T12:04:54.890Z,85
2017-03-02T12:06:04.632Z,100
2017-03-02T12:07:14.849Z,65
2017-03-02T12:08:24.183Z,75
2017-03-02T12:09:34.286Z,70
2017-03-02T12:10:44.483Z,80
2017-03-02T12:11:54.693Z,105
2017-03-02T12:13:04.478Z,50
2017-03-02T12:14:14.708Z,70
2017-03-02T12:15:25.105Z,85
2017-03-02T12:16:34.431Z,65
2017-03-02T12:17:44.193Z,65
2017-03-02T12:18:53.962Z,50
2017-03-02T12:20:04.161Z,85
2017-03-02T12:21:14.076Z,75
2017-03-02T12:22:23.861Z,55
2017-03-02T12:23:33.190Z,55
2017-03-02T12:24:42.970Z,55
2017-03-02T12:25:53.600Z,65
2017-03-02T12:27:02.973Z,75
2017-03-02T12:28:12.317Z,60
2017-03-02T12:29:22.522Z,50
2017-03-02T12:30:32.713Z,60
2017-03-02T12:31:42.475Z,40
2017-03-02T12:32:52.272Z,55
2017-03-02T12:34:01.605Z,60
2017-03-02T12:35:11.798Z,60
2017-03-02T12:36:21.119Z,50
2017-03-02T12:37:30.448Z,50
2017-03-02T12:38:40.244Z,50
2017-03-02T12:39:50.019Z,35
2017-03-02T12:40:59.343Z,50
2017-03-02T12:42:09.089Z,45
2017-03-02T12:43:19.298Z,35
2017-03-02T12:44:29.099Z,30
2017-03-02T12:45:38.863Z,35
2017-03-02T12:46:48.185Z,40
2017-03-02T12:47:57.995Z,40
2017-03-02T12:49:07.756Z,35
2017-03-02T12:50:18.440Z,40
2017-03-02T12:51:28.218Z,55
2017-03-02T12:52:37.983Z,55
2017-03-02T12:53:47.315Z,60
2017-03-02T12:54:57.530Z,70
2017-03-02T12:56:07.351Z,80
2017-03-02T12:57:17.587Z,70
2017-03-02T12:58:27.797Z,75
2017-03-02T12:59:37.549Z,75
2017-03-02T13:00:47.288Z,90
2017-03-02T13:01:56.652Z,100
2017-03-02T13:03:06.410Z,100
2017-03-02T13:04:16.599Z,100
2017-03-02T13:05:25.899Z,110
2017-03-02T13:06:35.666Z,85
2017-03-02T13:07:45.033Z,100
2017-03-02T13:08:55.250Z,100
2017-03-02T13:10:05.013Z,100
2017-03-02T13:11:14.333Z,90
2017-03-02T13:12:25.003Z,105
2017-03-02T13:13:34.812Z,105
2017-03-02T13:14:44.558Z,110
2017-03-02T13:15:53.908Z,110
2017-03-02T13:17:03.716Z,115
2017-03-02T13:18:13.473Z,95
2017-03-02T13:19:23.294Z,110
2017-03-02T13:20:32.607Z,105
2017-03-02T13:21:42.813Z,105
2017-03-02T13:22:52.150Z,105
2017-03-02T13:24:01.491Z,110
2017-03-02T13:25:10.872Z,100
2017-03-02T13:26:20.209Z,85
2017-03-02T13:27:30.416Z,85
2017-03-02T13:28:40.618Z,90
2017-03-02T13:29:50.364Z,90
2017-03-02T13:31:00.610Z,95
2017-03-02T13:32:10.382Z,95
2017-03-02T13:33:20.584Z,90
2017-03-02T13:34:30.340Z,90
2017-03-02T13:35:39.661Z,90
2017-03-02T13:36:49.506Z,85
2017-03-02T13:38:00.572Z,85
2017-03-02T13:39:10.384Z,80
2017-03-02T13:40:19.714Z,80
2017-03-02T13:41:29.476Z,85
2017-03-02T13:42:38.857Z,80
2017-03-02T13:43:48.643Z,80
2017-03-02T13:44:58.412Z,80
2017-03-02T13:46:08.178Z,75
2017-03-02T13:47:18.377Z,75
2017-03-02T13:48:28.186Z,75
2017-03-02T13:49:37.495Z,80
2017-03-02T13:50:46.817Z,80
2017-03-02T13:51:57.006Z,75
2017-03-02T13:53:07.221Z,65
2017-03-02T13:54:17.040Z,60
2017-03-02T13:55:26.384Z,60
2017-03-02T13:56:36.635Z,60
2017-03-02T13:57:45.956Z,60
2017-03-02T13:58:55.257Z,60
2017-03-02T14:00:04.646Z,60
2017-03-02T14:01:14.835Z,60
2017-03-02T14:02:24.164Z,55
2017-03-02T14:03:34.350Z,55
2017-03-02T14:04:43.683Z,60
2017-03-02T14:05:53.504Z,60
2017-03-02T14:07:03.253Z,60
2017-03-02T14:08:12.999Z,60
2017-03-02T14:09:22.308Z,55
2017-03-02T14:10:32.525Z,55
2017-03-02T14:11:42.062Z,55
2017-03-02T14:12:51.379Z,55
2017-03-02T14:14:00.708Z,50
2017-03-02T14:15:10.896Z,45
2017-03-02T14:16:21.102Z,45
2017-03-02T14:17:30.930Z,40
2017-03-02T14:18:41.132Z,40
2017-03-02T14:19:51.329Z,45
2017-03-02T14:21:01.523Z,50
2017-03-02T14:22:10.852Z,45
2017-03-02T14:23:20.712Z,45
2017-03-02T14:24:30.939Z,35
2017-03-02T14:25:40.710Z,35
2017-03-02T14:26:50.459Z,30
2017-03-02T14:28:00.665Z,30
2017-03-02T14:29:10.919Z,30
2017-03-02T14:30:20.243Z,35
2017-03-02T14:31:30.440Z,40
2017-03-02T14:32:40.639Z,45
2017-03-02T14:33:50.884Z,40
2017-03-02T14:35:00.724Z,40
2017-03-02T14:36:10.485Z,30
2017-03-02T14:37:19.803Z,35
2017-03-02T14:38:29.144Z,30
2017-03-02T14:39:38.902Z,25
2017-03-02T14:40:48.719Z,25
2017-03-02T14:41:58.467Z,15
2017-03-02T14:43:08.670Z,20
2017-03-02T14:44:18.863Z,10
2017-03-02T14:45:28.212Z,15
2017-03-02T14:46:38.453Z,15
2017-03-02T14:47:47.781Z,15
2017-03-02T14:48:57.546Z,20
2017-03-02T14:50:07.308Z,10
2017-03-02T14:51:16.616Z,10
2017-03-02T14:52:26.843Z,10
2017-03-02T14:53:36.607Z,20
2017-03-02T14:54:46.348Z,35
2017-03-02T14:55:56.123Z,45
2017-03-02T14:57:05.876Z,60
2017-03-02T14:58:15.687Z,65
2017-03-02T14:59:25.442Z,55
2017-03-02T15:00:34.759Z,35
2017-03-02T15:01:44.068Z,45
2017-03-02T15:02:53.393Z,50
2017-03-02T15:04:03.701Z,40
2017-03-02T15:05:13.468Z,45
2017-03-02T15:06:22.796Z,35
2017-03-02T15:07:32.999Z,40
2017-03-02T15:08:42.764Z,40
2017-03-02T15:09:52.565Z,40
2017-03-02T15:11:02.314Z,50
2017-03-02T15:12:12.054Z,35
2017-03-02T15:13:21.799Z,45
2017-03-02T15:14:31.986Z,50
2017-03-02T15:15:41.791Z,55
2017-03-02T15:16:52.009Z,65
2017-03-02T15:18:02.215Z,60
2017-03-02T15:19:12.450Z,65
2017-03-02T15:20:22.239Z,65
2017-03-02T15:21:32.047Z,40
2017-03-02T15:22:42.266Z,40
2017-03-02T15:23:52.075Z,40
2017-03-02T15:25:01.395Z,35
2017-03-02T15:26:12.021Z,40
2017-03-02T15:27:21.823Z,40
2017-03-02T15:28:31.206Z,40
2017-03-02T15:29:41.384Z,40
2017-03-02T15:30:50.692Z,35
2017-03-02T15:32:00.871Z,30
2017-03-02T15:33:10.245Z,25
2017-03-02T15:34:20.478Z,30
2017-03-02T15:35:30.259Z,30
2017-03-02T15:36:40.459Z,30
2017-03-02T15:37:50.229Z,30
2017-03-02T15:39:00.915Z,25
2017-03-02T15:40:11.140Z,20
2017-03-02T15:41:20.896Z,15
2017-03-02T15:42:30.221Z,15
2017-03-02T15:43:40.411Z,20
2017-03-02T15:44:49.792Z,20
2017-03-02T15:45:59.570Z,20
2017-03-02T15:47:08.898Z,20
2017-03-02T15:48:19.096Z,20
2017-03-02T15:49:28.854Z,20
2017-03-02T15:50:38.679Z,25
2017-03-02T15:51:48.421Z,25
2017-03-02T15:52:57.757Z,30
2017-03-02T15:54:07.089Z,35
2017-03-02T15:55:16.846Z,40
2017-03-02T15:56:27.550Z,40
2017-03-02T15:57:37.308Z,45
2017-03-02T15:58:47.493Z,40
2017-03-02T15:59:57.688Z,40
2017-03-02T16:01:07.445Z,40
2017-03-02T16:02:17.250Z,40
2017-03-02T16:03:27.023Z,40
2017-03-02T16:04:36.369Z,40
2017-03-02T16:05:46.569Z,35
2017-03-02T16:06:56.325Z,40
2017-03-02T16:08:06.132Z,40
2017-03-02T16:09:16.324Z,40
2017-03-02T16:10:26.081Z,35
2017-03-02T16:11:35.884Z,30
2017-03-02T16:12:45.629Z,20
2017-03-02T16:13:54.997Z,20
2017-03-02T16:15:04.764Z,20
2017-03-02T16:16:14.087Z,20
2017-03-02T16:17:24.274Z,20
2017-03-02T16:18:33.620Z,15
2017-03-02T16:19:43.423Z,15
2017-03-02T16:20:53.621Z,10
2017-03-02T16:22:03.814Z,10
2017-03-02T16:23:13.128Z,10
2017-03-02T16:24:22.441Z,10
2017-03-02T16:25:32.253Z,10
2017-03-02T16:26:42.010Z,10
2017-03-02T16:27:52.189Z,5
2017-03-02T16:29:01.978Z,5
2017-03-02T16:30:11.755Z,5
2017-03-02T16:31:21.987Z,5
2017-03-02T16:32:32.624Z,5
2017-03-02T16:33:41.958Z,5
2017-03-02T16:34:51.291Z,5
2017-03-02T16:36:01.907Z,5
2017-03-02T16:37:11.862Z,5
2017-03-02T16:38:21.620Z,0
2017-03-02T16:39:30.940Z,5
2017-03-02T16:40:40.266Z,5
2017-03-02T16:41:50.890Z,0
2017-03-02T16:43:01.560Z,0
2017-03-02T16:44:11.341Z,0
2017-03-02T16:45:21.531Z,0
2017-03-02T16:46:31.276Z,0
2017-03-02T16:47:40.601Z,0
2017-03-02T16:48:50.405Z,0
2017-03-02T16:50:00.601Z,0
2017-03-02T16:51:09.973Z,0